sensor_id;sensor_type;location;lat;lon;timestamp;temperature;humidity
4103;DHT22;2065;49.790;9.620;2023-04-03T00:02:09;8.60;48.40
4103;DHT22;2065;49.790;9.620;2023-04-03T00:04:36;8.40;48.00
4103;DHT22;2065;49.790;9.620;2023-04-03T00:07:04;8.40;48.40
4103;DHT22;2065;49.790;9.620;2023-04-03T00:09:31;8.20;48.90
4103;DHT22;2065;49.790;9.620;2023-04-03T00:11:58;8.10;48.40
4103;DHT22;2065;49.790;9.620;2023-04-03T00:14:26;7.90;48.50
4103;DHT22;2065;49.790;9.620;2023-04-03T00:16:53;8.00;48.40
4103;DHT22;2065;49.790;9.620;2023-04-03T00:19:20;7.90;49.10
4103;DHT22;2065;49.790;9.620;2023-04-03T00:21:47;7.80;49.40
4103;DHT22;2065;49.790;9.620;2023-04-03T00:24:15;7.80;48.80
4103;DHT22;2065;49.790;9.620;2023-04-03T00:26:42;7.60;49.20
4103;DHT22;2065;49.790;9.620;2023-04-03T00:29:09;7.70;49.80
4103;DHT22;2065;49.790;9.620;2023-04-03T00:31:37;7.70;49.50
4103;DHT22;2065;49.790;9.620;2023-04-03T00:34:04;7.70;49.60
4103;DHT22;2065;49.790;9.620;2023-04-03T00:36:31;7.70;49.40
4103;DHT22;2065;49.790;9.620;2023-04-03T00:38:58;7.50;49.50
4103;DHT22;2065;49.790;9.620;2023-04-03T00:41:27;7.10;50.60
4103;DHT22;2065;49.790;9.620;2023-04-03T00:43:54;7.20;50.60
4103;DHT22;2065;49.790;9.620;2023-04-03T00:46:21;7.40;50.60
4103;DHT22;2065;49.790;9.620;2023-04-03T00:48:49;7.50;50.60
4103;DHT22;2065;49.790;9.620;2023-04-03T00:51:19;7.60;50.90
4103;DHT22;2065;49.790;9.620;2023-04-03T00:53:51;7.80;50.40
4103;DHT22;2065;49.790;9.620;2023-04-03T00:56:23;8.00;50.30
4103;DHT22;2065;49.790;9.620;2023-04-03T00:58:56;8.00;49.40
4103;DHT22;2065;49.790;9.620;2023-04-03T01:01:26;8.00;49.30
4103;DHT22;2065;49.790;9.620;2023-04-03T01:03:54;7.90;48.90
4103;DHT22;2065;49.790;9.620;2023-04-03T01:06:26;8.00;49.10
4103;DHT22;2065;49.790;9.620;2023-04-03T01:08:57;7.80;49.10
4103;DHT22;2065;49.790;9.620;2023-04-03T01:11:25;7.60;49.70
4103;DHT22;2065;49.790;9.620;2023-04-03T01:13:54;7.50;50.30
4103;DHT22;2065;49.790;9.620;2023-04-03T01:16:21;7.50;51.30
4103;DHT22;2065;49.790;9.620;2023-04-03T01:18:48;7.50;51.50
4103;DHT22;2065;49.790;9.620;2023-04-03T01:21:42;7.70;51.40
4103;DHT22;2065;49.790;9.620;2023-04-03T01:24:25;8.00;50.70
4103;DHT22;2065;49.790;9.620;2023-04-03T01:26:54;8.10;50.30
4103;DHT22;2065;49.790;9.620;2023-04-03T01:29:23;8.20;50.60
4103;DHT22;2065;49.790;9.620;2023-04-03T01:31:54;8.20;50.50
4103;DHT22;2065;49.790;9.620;2023-04-03T01:34:22;8.30;50.50
4103;DHT22;2065;49.790;9.620;2023-04-03T01:36:51;8.30;50.20
4103;DHT22;2065;49.790;9.620;2023-04-03T01:39:20;8.30;50.50
4103;DHT22;2065;49.790;9.620;2023-04-03T01:41:48;8.40;50.90
4103;DHT22;2065;49.790;9.620;2023-04-03T01:44:22;8.50;51.00
4103;DHT22;2065;49.790;9.620;2023-04-03T01:46:49;8.60;51.20
4103;DHT22;2065;49.790;9.620;2023-04-03T01:49:17;8.70;50.90
4103;DHT22;2065;49.790;9.620;2023-04-03T01:51:44;8.70;50.80
4103;DHT22;2065;49.790;9.620;2023-04-03T01:54:12;8.70;50.90
4103;DHT22;2065;49.790;9.620;2023-04-03T01:56:39;8.70;50.30
4103;DHT22;2065;49.790;9.620;2023-04-03T01:59:07;8.70;50.30
4103;DHT22;2065;49.790;9.620;2023-04-03T02:01:35;8.70;50.80
4103;DHT22;2065;49.790;9.620;2023-04-03T02:04:02;8.80;50.90
4103;DHT22;2065;49.790;9.620;2023-04-03T02:06:31;8.70;50.90
4103;DHT22;2065;49.790;9.620;2023-04-03T02:08:58;8.70;50.90
4103;DHT22;2065;49.790;9.620;2023-04-03T02:11:25;8.70;51.60
4103;DHT22;2065;49.790;9.620;2023-04-03T02:13:52;8.80;51.80
4103;DHT22;2065;49.790;9.620;2023-04-03T02:16:19;8.80;51.50
4103;DHT22;2065;49.790;9.620;2023-04-03T02:18:48;8.80;51.80
4103;DHT22;2065;49.790;9.620;2023-04-03T02:21:16;8.80;52.10
4103;DHT22;2065;49.790;9.620;2023-04-03T02:23:44;8.70;51.60
4103;DHT22;2065;49.790;9.620;2023-04-03T02:26:14;8.70;52.10
4103;DHT22;2065;49.790;9.620;2023-04-03T02:28:44;8.80;51.80
4103;DHT22;2065;49.790;9.620;2023-04-03T02:31:12;8.90;51.90
4103;DHT22;2065;49.790;9.620;2023-04-03T02:33:41;8.90;51.70
4103;DHT22;2065;49.790;9.620;2023-04-03T02:36:10;9.00;51.90
4103;DHT22;2065;49.790;9.620;2023-04-03T02:38:40;9.00;51.80
4103;DHT22;2065;49.790;9.620;2023-04-03T02:41:11;9.00;51.80
4103;DHT22;2065;49.790;9.620;2023-04-03T02:43:38;9.00;52.40
4103;DHT22;2065;49.790;9.620;2023-04-03T02:46:06;9.10;52.70
4103;DHT22;2065;49.790;9.620;2023-04-03T02:48:34;8.90;53.10
4103;DHT22;2065;49.790;9.620;2023-04-03T02:51:01;8.80;53.50
4103;DHT22;2065;49.790;9.620;2023-04-03T02:53:28;8.90;53.70
4103;DHT22;2065;49.790;9.620;2023-04-03T02:55:56;8.90;53.50
4103;DHT22;2065;49.790;9.620;2023-04-03T02:58:24;9.00;53.50
4103;DHT22;2065;49.790;9.620;2023-04-03T03:00:54;9.00;53.40
4103;DHT22;2065;49.790;9.620;2023-04-03T03:03:21;9.00;53.50
4103;DHT22;2065;49.790;9.620;2023-04-03T03:05:48;9.10;53.50
4103;DHT22;2065;49.790;9.620;2023-04-03T03:08:16;9.00;53.60
4103;DHT22;2065;49.790;9.620;2023-04-03T03:10:46;9.00;53.60
4103;DHT22;2065;49.790;9.620;2023-04-03T03:13:13;9.10;53.30
4103;DHT22;2065;49.790;9.620;2023-04-03T03:15:41;9.10;53.00
4103;DHT22;2065;49.790;9.620;2023-04-03T03:18:08;9.00;53.10
4103;DHT22;2065;49.790;9.620;2023-04-03T03:20:35;9.00;53.20
4103;DHT22;2065;49.790;9.620;2023-04-03T03:23:02;9.10;53.10
4103;DHT22;2065;49.790;9.620;2023-04-03T03:25:30;9.10;52.70
4103;DHT22;2065;49.790;9.620;2023-04-03T03:27:57;9.00;52.30
4103;DHT22;2065;49.790;9.620;2023-04-03T03:30:24;8.90;52.00
4103;DHT22;2065;49.790;9.620;2023-04-03T03:32:53;9.00;52.10
4103;DHT22;2065;49.790;9.620;2023-04-03T03:35:20;9.00;52.20
4103;DHT22;2065;49.790;9.620;2023-04-03T03:37:47;9.00;51.70
4103;DHT22;2065;49.790;9.620;2023-04-03T03:40:14;8.90;51.50
4103;DHT22;2065;49.790;9.620;2023-04-03T03:42:42;8.90;51.40
4103;DHT22;2065;49.790;9.620;2023-04-03T03:45:10;8.90;51.90
4103;DHT22;2065;49.790;9.620;2023-04-03T03:47:37;8.90;51.80
4103;DHT22;2065;49.790;9.620;2023-04-03T03:50:07;9.00;52.00
4103;DHT22;2065;49.790;9.620;2023-04-03T03:52:34;9.00;52.40
4103;DHT22;2065;49.790;9.620;2023-04-03T03:55:01;9.10;52.40
4103;DHT22;2065;49.790;9.620;2023-04-03T03:57:28;9.10;52.50
4103;DHT22;2065;49.790;9.620;2023-04-03T03:59:56;9.00;52.50
4103;DHT22;2065;49.790;9.620;2023-04-03T04:02:23;8.90;53.10
4103;DHT22;2065;49.790;9.620;2023-04-03T04:04:52;9.00;53.20
4103;DHT22;2065;49.790;9.620;2023-04-03T04:07:20;9.00;52.70
4103;DHT22;2065;49.790;9.620;2023-04-03T04:09:48;9.10;53.20
4103;DHT22;2065;49.790;9.620;2023-04-03T04:12:15;9.00;52.90
4103;DHT22;2065;49.790;9.620;2023-04-03T04:14:42;8.90;53.00
4103;DHT22;2065;49.790;9.620;2023-04-03T04:17:13;8.20;54.00
4103;DHT22;2065;49.790;9.620;2023-04-03T04:19:40;7.90;55.30
4103;DHT22;2065;49.790;9.620;2023-04-03T04:22:07;7.90;55.50
4103;DHT22;2065;49.790;9.620;2023-04-03T04:24:36;7.90;55.20
4103;DHT22;2065;49.790;9.620;2023-04-03T04:27:03;8.00;55.00
4103;DHT22;2065;49.790;9.620;2023-04-03T04:29:32;7.80;54.60
4103;DHT22;2065;49.790;9.620;2023-04-03T04:32:01;7.90;55.20
4103;DHT22;2065;49.790;9.620;2023-04-03T04:34:30;7.90;55.00
4103;DHT22;2065;49.790;9.620;2023-04-03T04:36:58;7.80;54.70
4103;DHT22;2065;49.790;9.620;2023-04-03T04:39:27;7.90;54.60
4103;DHT22;2065;49.790;9.620;2023-04-03T04:41:59;8.10;53.90
4103;DHT22;2065;49.790;9.620;2023-04-03T04:44:29;8.00;54.50
4103;DHT22;2065;49.790;9.620;2023-04-03T04:46:56;8.10;53.50
4103;DHT22;2065;49.790;9.620;2023-04-03T04:49:23;8.10;53.40
4103;DHT22;2065;49.790;9.620;2023-04-03T04:51:50;8.00;52.90
4103;DHT22;2065;49.790;9.620;2023-04-03T04:54:19;7.60;53.60
4103;DHT22;2065;49.790;9.620;2023-04-03T04:56:48;7.30;53.80
4103;DHT22;2065;49.790;9.620;2023-04-03T04:59:16;7.30;54.00
4103;DHT22;2065;49.790;9.620;2023-04-03T05:01:43;7.60;53.80
4103;DHT22;2065;49.790;9.620;2023-04-03T05:04:15;7.60;53.40
4103;DHT22;2065;49.790;9.620;2023-04-03T05:06:43;7.40;53.10
4103;DHT22;2065;49.790;9.620;2023-04-03T05:09:15;7.30;53.30
4103;DHT22;2065;49.790;9.620;2023-04-03T05:11:44;7.50;53.80
4103;DHT22;2065;49.790;9.620;2023-04-03T05:14:15;7.50;52.90
4103;DHT22;2065;49.790;9.620;2023-04-03T05:16:42;7.50;52.50
4103;DHT22;2065;49.790;9.620;2023-04-03T05:19:09;7.60;52.70
4103;DHT22;2065;49.790;9.620;2023-04-03T05:21:37;7.60;51.90
4103;DHT22;2065;49.790;9.620;2023-04-03T05:24:09;7.70;52.20
4103;DHT22;2065;49.790;9.620;2023-04-03T05:26:39;7.80;52.00
4103;DHT22;2065;49.790;9.620;2023-04-03T05:29:07;7.80;51.90
4103;DHT22;2065;49.790;9.620;2023-04-03T05:31:36;7.80;51.90
4103;DHT22;2065;49.790;9.620;2023-04-03T05:34:04;7.50;51.80
4103;DHT22;2065;49.790;9.620;2023-04-03T05:36:34;7.50;52.90
4103;DHT22;2065;49.790;9.620;2023-04-03T05:39:05;7.60;52.00
4103;DHT22;2065;49.790;9.620;2023-04-03T05:41:35;7.60;51.30
4103;DHT22;2065;49.790;9.620;2023-04-03T05:44:02;7.70;51.50
4103;DHT22;2065;49.790;9.620;2023-04-03T05:46:29;7.70;51.20
4103;DHT22;2065;49.790;9.620;2023-04-03T05:49:02;7.80;50.50
4103;DHT22;2065;49.790;9.620;2023-04-03T05:51:34;7.70;51.10
4103;DHT22;2065;49.790;9.620;2023-04-03T05:54:12;7.70;50.80
4103;DHT22;2065;49.790;9.620;2023-04-03T05:56:40;7.60;51.10
4103;DHT22;2065;49.790;9.620;2023-04-03T05:59:08;7.40;50.70
4103;DHT22;2065;49.790;9.620;2023-04-03T06:01:36;7.20;51.40
4103;DHT22;2065;49.790;9.620;2023-04-03T06:04:05;7.20;51.70
4103;DHT22;2065;49.790;9.620;2023-04-03T06:06:46;7.10;51.80
4103;DHT22;2065;49.790;9.620;2023-04-03T06:09:14;7.20;51.60
4103;DHT22;2065;49.790;9.620;2023-04-03T06:11:42;7.10;51.20
4103;DHT22;2065;49.790;9.620;2023-04-03T06:14:09;6.80;51.60
4103;DHT22;2065;49.790;9.620;2023-04-03T06:16:36;6.70;52.00
4103;DHT22;2065;49.790;9.620;2023-04-03T06:19:08;6.50;52.30
4103;DHT22;2065;49.790;9.620;2023-04-03T06:21:39;6.50;52.70
4103;DHT22;2065;49.790;9.620;2023-04-03T06:24:06;6.70;52.30
4103;DHT22;2065;49.790;9.620;2023-04-03T06:26:34;6.80;52.50
4103;DHT22;2065;49.790;9.620;2023-04-03T06:29:02;7.10;51.90
4103;DHT22;2065;49.790;9.620;2023-04-03T06:31:29;7.20;51.40
4103;DHT22;2065;49.790;9.620;2023-04-03T06:33:56;7.40;51.00
4103;DHT22;2065;49.790;9.620;2023-04-03T06:36:24;7.30;51.10
4103;DHT22;2065;49.790;9.620;2023-04-03T06:38:51;7.30;50.90
4103;DHT22;2065;49.790;9.620;2023-04-03T06:41:18;7.00;51.80
4103;DHT22;2065;49.790;9.620;2023-04-03T06:43:46;7.10;51.90
4103;DHT22;2065;49.790;9.620;2023-04-03T06:46:14;7.20;51.40
4103;DHT22;2065;49.790;9.620;2023-04-03T06:48:45;7.10;51.20
4103;DHT22;2065;49.790;9.620;2023-04-03T06:51:17;7.20;51.20
4103;DHT22;2065;49.790;9.620;2023-04-03T06:53:47;7.30;51.00
4103;DHT22;2065;49.790;9.620;2023-04-03T06:56:15;7.10;51.00
4103;DHT22;2065;49.790;9.620;2023-04-03T06:58:42;7.00;51.20
4103;DHT22;2065;49.790;9.620;2023-04-03T07:01:12;7.10;50.90
4103;DHT22;2065;49.790;9.620;2023-04-03T07:03:40;7.10;50.90
4103;DHT22;2065;49.790;9.620;2023-04-03T07:06:08;7.20;50.60
4103;DHT22;2065;49.790;9.620;2023-04-03T07:08:38;6.90;51.30
4103;DHT22;2065;49.790;9.620;2023-04-03T07:11:07;6.90;51.90
4103;DHT22;2065;49.790;9.620;2023-04-03T07:13:35;7.10;51.50
4103;DHT22;2065;49.790;9.620;2023-04-03T07:16:02;7.20;50.70
4103;DHT22;2065;49.790;9.620;2023-04-03T07:18:31;7.50;50.80
4103;DHT22;2065;49.790;9.620;2023-04-03T07:20:58;7.50;50.10
4103;DHT22;2065;49.790;9.620;2023-04-03T07:23:25;7.40;49.80
4103;DHT22;2065;49.790;9.620;2023-04-03T07:25:52;7.40;50.20
4103;DHT22;2065;49.790;9.620;2023-04-03T07:28:21;7.60;49.90
4103;DHT22;2065;49.790;9.620;2023-04-03T07:30:52;7.40;49.60
4103;DHT22;2065;49.790;9.620;2023-04-03T07:33:22;7.30;49.40
4103;DHT22;2065;49.790;9.620;2023-04-03T07:35:49;7.50;50.10
4103;DHT22;2065;49.790;9.620;2023-04-03T07:38:16;7.50;48.50
4103;DHT22;2065;49.790;9.620;2023-04-03T07:40:46;7.30;48.90
4103;DHT22;2065;49.790;9.620;2023-04-03T07:43:13;7.30;49.90
4103;DHT22;2065;49.790;9.620;2023-04-03T07:45:43;7.50;49.40
4103;DHT22;2065;49.790;9.620;2023-04-03T07:48:11;7.30;49.90
4103;DHT22;2065;49.790;9.620;2023-04-03T07:50:40;7.30;49.10
4103;DHT22;2065;49.790;9.620;2023-04-03T07:53:07;7.40;49.40
4103;DHT22;2065;49.790;9.620;2023-04-03T07:55:34;7.50;48.70
4103;DHT22;2065;49.790;9.620;2023-04-03T07:58:06;7.60;49.10
4103;DHT22;2065;49.790;9.620;2023-04-03T08:00:33;7.70;49.30
4103;DHT22;2065;49.790;9.620;2023-04-03T08:03:01;7.80;47.50
4103;DHT22;2065;49.790;9.620;2023-04-03T08:05:28;7.80;47.50
4103;DHT22;2065;49.790;9.620;2023-04-03T08:07:55;7.80;47.40
4103;DHT22;2065;49.790;9.620;2023-04-03T08:10:23;8.10;47.50
4103;DHT22;2065;49.790;9.620;2023-04-03T08:12:50;8.00;48.20
4103;DHT22;2065;49.790;9.620;2023-04-03T08:15:17;8.10;47.80
4103;DHT22;2065;49.790;9.620;2023-04-03T08:17:44;8.20;48.50
4103;DHT22;2065;49.790;9.620;2023-04-03T08:20:12;8.40;47.30
4103;DHT22;2065;49.790;9.620;2023-04-03T08:22:39;8.50;47.50
4103;DHT22;2065;49.790;9.620;2023-04-03T08:25:07;8.50;47.40
4103;DHT22;2065;49.790;9.620;2023-04-03T08:27:34;8.60;47.20
4103;DHT22;2065;49.790;9.620;2023-04-03T08:30:02;8.90;46.50
4103;DHT22;2065;49.790;9.620;2023-04-03T08:32:30;9.10;46.60
4103;DHT22;2065;49.790;9.620;2023-04-03T08:34:57;8.80;45.70
4103;DHT22;2065;49.790;9.620;2023-04-03T08:37:25;8.60;47.10
4103;DHT22;2065;49.790;9.620;2023-04-03T08:39:52;8.70;47.10
4103;DHT22;2065;49.790;9.620;2023-04-03T08:42:32;8.80;46.20
4103;DHT22;2065;49.790;9.620;2023-04-03T08:45:08;8.70;46.30
4103;DHT22;2065;49.790;9.620;2023-04-03T08:47:39;8.80;46.10
4103;DHT22;2065;49.790;9.620;2023-04-03T08:50:12;8.80;45.60
4103;DHT22;2065;49.790;9.620;2023-04-03T08:52:44;8.60;46.00
4103;DHT22;2065;49.790;9.620;2023-04-03T08:55:21;8.60;46.80
4103;DHT22;2065;49.790;9.620;2023-04-03T08:57:50;8.90;47.30
4103;DHT22;2065;49.790;9.620;2023-04-03T09:00:20;9.10;45.80
4103;DHT22;2065;49.790;9.620;2023-04-03T09:02:50;9.10;45.50
4103;DHT22;2065;49.790;9.620;2023-04-03T09:05:19;9.00;45.20
4103;DHT22;2065;49.790;9.620;2023-04-03T09:07:53;9.10;45.80
4103;DHT22;2065;49.790;9.620;2023-04-03T09:10:25;9.10;44.80
4103;DHT22;2065;49.790;9.620;2023-04-03T09:13:00;9.00;45.90
4103;DHT22;2065;49.790;9.620;2023-04-03T09:15:28;9.30;45.20
4103;DHT22;2065;49.790;9.620;2023-04-03T09:17:59;9.50;45.10
4103;DHT22;2065;49.790;9.620;2023-04-03T09:20:38;9.40;45.70
4103;DHT22;2065;49.790;9.620;2023-04-03T09:23:22;9.50;43.80
4103;DHT22;2065;49.790;9.620;2023-04-03T09:25:56;9.30;44.60
4103;DHT22;2065;49.790;9.620;2023-04-03T09:28:24;9.10;44.90
4103;DHT22;2065;49.790;9.620;2023-04-03T09:30:51;9.20;43.40
4103;DHT22;2065;49.790;9.620;2023-04-03T09:33:19;9.10;43.70
4103;DHT22;2065;49.790;9.620;2023-04-03T09:35:48;9.10;44.00
4103;DHT22;2065;49.790;9.620;2023-04-03T09:38:22;9.30;44.50
4103;DHT22;2065;49.790;9.620;2023-04-03T09:40:50;9.60;43.80
4103;DHT22;2065;49.790;9.620;2023-04-03T09:43:30;9.70;43.70
4103;DHT22;2065;49.790;9.620;2023-04-03T09:46:16;9.80;42.80
4103;DHT22;2065;49.790;9.620;2023-04-03T09:48:50;9.90;42.90
4103;DHT22;2065;49.790;9.620;2023-04-03T09:51:17;10.00;42.20
4103;DHT22;2065;49.790;9.620;2023-04-03T09:53:46;10.00;42.30
4103;DHT22;2065;49.790;9.620;2023-04-03T09:56:24;9.70;42.20
4103;DHT22;2065;49.790;9.620;2023-04-03T09:59:08;9.70;41.70
4103;DHT22;2065;49.790;9.620;2023-04-03T10:01:37;9.90;41.00
4103;DHT22;2065;49.790;9.620;2023-04-03T10:04:09;10.10;40.70
4103;DHT22;2065;49.790;9.620;2023-04-03T10:06:39;10.40;40.40
4103;DHT22;2065;49.790;9.620;2023-04-03T10:09:20;10.30;40.20
4103;DHT22;2065;49.790;9.620;2023-04-03T10:12:02;10.40;40.90
4103;DHT22;2065;49.790;9.620;2023-04-03T10:14:31;10.50;38.20
4103;DHT22;2065;49.790;9.620;2023-04-03T10:17:05;10.10;39.10
4103;DHT22;2065;49.790;9.620;2023-04-03T10:19:40;10.10;39.80
4103;DHT22;2065;49.790;9.620;2023-04-03T10:22:18;10.20;39.90
4103;DHT22;2065;49.790;9.620;2023-04-03T10:24:52;10.20;39.20
4103;DHT22;2065;49.790;9.620;2023-04-03T10:27:31;10.40;38.40
4103;DHT22;2065;49.790;9.620;2023-04-03T10:30:04;10.30;39.40
4103;DHT22;2065;49.790;9.620;2023-04-03T10:32:48;10.60;37.70
4103;DHT22;2065;49.790;9.620;2023-04-03T10:35:27;11.00;38.00
4103;DHT22;2065;49.790;9.620;2023-04-03T10:38:05;11.50;37.90
4103;DHT22;2065;49.790;9.620;2023-04-03T10:40:41;11.50;36.70
4103;DHT22;2065;49.790;9.620;2023-04-03T10:43:18;11.50;34.60
4103;DHT22;2065;49.790;9.620;2023-04-03T10:45:53;11.60;35.90
4103;DHT22;2065;49.790;9.620;2023-04-03T10:51:22;11.90;33.80
4103;DHT22;2065;49.790;9.620;2023-04-03T10:53:55;11.80;33.00
4103;DHT22;2065;49.790;9.620;2023-04-03T10:56:31;11.60;34.00
4103;DHT22;2065;49.790;9.620;2023-04-03T10:59:16;11.60;33.20
4103;DHT22;2065;49.790;9.620;2023-04-03T11:01:47;11.70;35.30
4103;DHT22;2065;49.790;9.620;2023-04-03T11:04:16;11.70;33.80
4103;DHT22;2065;49.790;9.620;2023-04-03T11:06:50;11.90;32.90
4103;DHT22;2065;49.790;9.620;2023-04-03T11:09:22;12.00;32.80
4103;DHT22;2065;49.790;9.620;2023-04-03T11:11:56;11.80;31.20
4103;DHT22;2065;49.790;9.620;2023-04-03T11:14:26;11.60;30.70
4103;DHT22;2065;49.790;9.620;2023-04-03T11:17:05;11.90;30.50
4103;DHT22;2065;49.790;9.620;2023-04-03T11:19:36;11.90;29.90
4103;DHT22;2065;49.790;9.620;2023-04-03T11:22:11;12.00;29.60
4103;DHT22;2065;49.790;9.620;2023-04-03T11:24:42;12.00;31.30
4103;DHT22;2065;49.790;9.620;2023-04-03T11:27:17;12.20;32.30
4103;DHT22;2065;49.790;9.620;2023-04-03T11:29:48;12.00;31.60
4103;DHT22;2065;49.790;9.620;2023-04-03T11:32:29;12.00;33.10
4103;DHT22;2065;49.790;9.620;2023-04-03T11:35:01;12.30;30.70
4103;DHT22;2065;49.790;9.620;2023-04-03T11:37:33;12.10;30.20
4103;DHT22;2065;49.790;9.620;2023-04-03T11:40:04;12.00;30.40
4103;DHT22;2065;49.790;9.620;2023-04-03T11:42:37;11.80;30.20
4103;DHT22;2065;49.790;9.620;2023-04-03T11:45:27;11.90;31.50
4103;DHT22;2065;49.790;9.620;2023-04-03T11:47:58;11.90;31.00
4103;DHT22;2065;49.790;9.620;2023-04-03T11:50:39;12.00;30.80
4103;DHT22;2065;49.790;9.620;2023-04-03T11:53:34;11.70;29.80
4103;DHT22;2065;49.790;9.620;2023-04-03T11:59:15;11.70;30.30
4103;DHT22;2065;49.790;9.620;2023-04-03T12:01:45;11.90;31.70
4103;DHT22;2065;49.790;9.620;2023-04-03T12:04:13;12.70;30.00
4103;DHT22;2065;49.790;9.620;2023-04-03T12:06:53;13.20;29.70
4103;DHT22;2065;49.790;9.620;2023-04-03T12:09:34;13.30;28.70
4103;DHT22;2065;49.790;9.620;2023-04-03T12:12:23;13.00;29.30
4103;DHT22;2065;49.790;9.620;2023-04-03T12:14:52;12.90;30.60
4103;DHT22;2065;49.790;9.620;2023-04-03T12:17:22;12.50;29.70
4103;DHT22;2065;49.790;9.620;2023-04-03T12:19:50;12.40;29.80
4103;DHT22;2065;49.790;9.620;2023-04-03T12:22:19;12.40;29.40
4103;DHT22;2065;49.790;9.620;2023-04-03T12:24:48;12.40;29.40
4103;DHT22;2065;49.790;9.620;2023-04-03T12:27:25;12.30;29.90
4103;DHT22;2065;49.790;9.620;2023-04-03T12:30:01;12.10;29.30
4103;DHT22;2065;49.790;9.620;2023-04-03T12:32:47;12.40;29.50
4103;DHT22;2065;49.790;9.620;2023-04-03T12:35:21;12.70;29.00
4103;DHT22;2065;49.790;9.620;2023-04-03T12:38:25;12.90;27.50
4103;DHT22;2065;49.790;9.620;2023-04-03T12:41:11;13.00;27.30
4103;DHT22;2065;49.790;9.620;2023-04-03T12:43:53;12.80;27.10
4103;DHT22;2065;49.790;9.620;2023-04-03T12:46:24;12.90;26.90
4103;DHT22;2065;49.790;9.620;2023-04-03T12:48:57;13.10;27.90
4103;DHT22;2065;49.790;9.620;2023-04-03T12:51:30;13.70;28.40
4103;DHT22;2065;49.790;9.620;2023-04-03T12:54:03;13.70;26.20
4103;DHT22;2065;49.790;9.620;2023-04-03T12:56:32;13.70;27.90
4103;DHT22;2065;49.790;9.620;2023-04-03T12:59:14;14.10;28.80
4103;DHT22;2065;49.790;9.620;2023-04-03T13:01:43;14.10;27.70
4103;DHT22;2065;49.790;9.620;2023-04-03T13:04:11;13.90;27.60
4103;DHT22;2065;49.790;9.620;2023-04-03T13:06:40;13.30;28.70
4103;DHT22;2065;49.790;9.620;2023-04-03T13:09:19;13.50;28.90
4103;DHT22;2065;49.790;9.620;2023-04-03T13:11:48;13.30;29.30
4103;DHT22;2065;49.790;9.620;2023-04-03T13:14:19;12.90;28.70
4103;DHT22;2065;49.790;9.620;2023-04-03T13:16:55;13.00;29.30
4103;DHT22;2065;49.790;9.620;2023-04-03T13:19:24;13.40;28.40
4103;DHT22;2065;49.790;9.620;2023-04-03T13:21:56;13.50;28.10
4103;DHT22;2065;49.790;9.620;2023-04-03T13:24:24;13.60;28.50
4103;DHT22;2065;49.790;9.620;2023-04-03T13:26:52;13.90;28.00
4103;DHT22;2065;49.790;9.620;2023-04-03T13:29:23;14.20;28.60
4103;DHT22;2065;49.790;9.620;2023-04-03T13:31:54;14.60;27.60
4103;DHT22;2065;49.790;9.620;2023-04-03T13:34:23;14.10;26.20
4103;DHT22;2065;49.790;9.620;2023-04-03T13:36:57;13.50;27.30
4103;DHT22;2065;49.790;9.620;2023-04-03T13:39:26;13.60;28.40
4103;DHT22;2065;49.790;9.620;2023-04-03T13:41:55;13.50;27.50
4103;DHT22;2065;49.790;9.620;2023-04-03T13:44:32;13.60;28.30
4103;DHT22;2065;49.790;9.620;2023-04-03T13:47:15;13.80;27.30
4103;DHT22;2065;49.790;9.620;2023-04-03T13:49:44;14.10;26.40
4103;DHT22;2065;49.790;9.620;2023-04-03T13:52:23;14.10;27.30
4103;DHT22;2065;49.790;9.620;2023-04-03T13:54:54;14.50;27.10
4103;DHT22;2065;49.790;9.620;2023-04-03T13:57:22;14.20;26.90
4103;DHT22;2065;49.790;9.620;2023-04-03T13:59:49;14.00;26.90
4103;DHT22;2065;49.790;9.620;2023-04-03T14:02:20;14.10;26.60
4103;DHT22;2065;49.790;9.620;2023-04-03T14:04:53;13.80;27.40
4103;DHT22;2065;49.790;9.620;2023-04-03T14:07:23;14.00;28.00
4103;DHT22;2065;49.790;9.620;2023-04-03T14:09:50;13.70;27.40
4103;DHT22;2065;49.790;9.620;2023-04-03T14:12:24;13.80;27.40
4103;DHT22;2065;49.790;9.620;2023-04-03T14:14:52;13.80;27.80
4103;DHT22;2065;49.790;9.620;2023-04-03T14:17:23;13.10;27.30
4103;DHT22;2065;49.790;9.620;2023-04-03T14:19:52;13.20;27.80
4103;DHT22;2065;49.790;9.620;2023-04-03T14:22:21;13.30;27.00
4103;DHT22;2065;49.790;9.620;2023-04-03T14:24:50;13.60;27.30
4103;DHT22;2065;49.790;9.620;2023-04-03T14:27:20;13.50;27.10
4103;DHT22;2065;49.790;9.620;2023-04-03T14:29:48;13.90;27.80
4103;DHT22;2065;49.790;9.620;2023-04-03T14:32:17;14.00;27.70
4103;DHT22;2065;49.790;9.620;2023-04-03T14:34:46;14.10;28.40
4103;DHT22;2065;49.790;9.620;2023-04-03T14:37:15;14.30;27.90
4103;DHT22;2065;49.790;9.620;2023-04-03T14:39:43;14.00;26.80
4103;DHT22;2065;49.790;9.620;2023-04-03T14:42:13;14.20;27.60
4103;DHT22;2065;49.790;9.620;2023-04-03T14:44:41;14.10;26.40
4103;DHT22;2065;49.790;9.620;2023-04-03T14:47:10;14.40;26.80
4103;DHT22;2065;49.790;9.620;2023-04-03T14:49:38;14.60;26.80
4103;DHT22;2065;49.790;9.620;2023-04-03T14:52:17;13.90;26.80
4103;DHT22;2065;49.790;9.620;2023-04-03T14:54:45;13.60;27.30
4103;DHT22;2065;49.790;9.620;2023-04-03T14:57:13;13.50;27.10
4103;DHT22;2065;49.790;9.620;2023-04-03T14:59:41;13.40;27.50
4103;DHT22;2065;49.790;9.620;2023-04-03T15:02:25;13.10;27.70
4103;DHT22;2065;49.790;9.620;2023-04-03T15:04:52;12.90;27.30
4103;DHT22;2065;49.790;9.620;2023-04-03T15:07:20;13.10;27.50
4103;DHT22;2065;49.790;9.620;2023-04-03T15:09:48;13.30;27.70
4103;DHT22;2065;49.790;9.620;2023-04-03T15:12:15;13.40;27.40
4103;DHT22;2065;49.790;9.620;2023-04-03T15:14:42;13.80;28.10
4103;DHT22;2065;49.790;9.620;2023-04-03T15:17:14;13.90;27.90
4103;DHT22;2065;49.790;9.620;2023-04-03T15:19:43;13.70;27.80
4103;DHT22;2065;49.790;9.620;2023-04-03T15:22:13;13.40;28.10
4103;DHT22;2065;49.790;9.620;2023-04-03T15:24:42;12.80;28.50
4103;DHT22;2065;49.790;9.620;2023-04-03T15:27:10;12.60;28.50
4103;DHT22;2065;49.790;9.620;2023-04-03T15:29:38;12.30;28.10
4103;DHT22;2065;49.790;9.620;2023-04-03T15:32:05;12.20;29.80
4103;DHT22;2065;49.790;9.620;2023-04-03T15:34:32;12.50;29.60
4103;DHT22;2065;49.790;9.620;2023-04-03T15:37:00;12.30;27.90
4103;DHT22;2065;49.790;9.620;2023-04-03T15:39:27;12.40;28.60
4103;DHT22;2065;49.790;9.620;2023-04-03T15:41:55;12.60;29.20
4103;DHT22;2065;49.790;9.620;2023-04-03T15:44:25;12.90;28.30
4103;DHT22;2065;49.790;9.620;2023-04-03T15:46:52;13.00;27.70
4103;DHT22;2065;49.790;9.620;2023-04-03T15:49:20;12.50;28.40
4103;DHT22;2065;49.790;9.620;2023-04-03T15:51:47;12.20;28.60
4103;DHT22;2065;49.790;9.620;2023-04-03T15:54:15;12.00;29.20
4103;DHT22;2065;49.790;9.620;2023-04-03T15:56:42;11.90;29.20
4103;DHT22;2065;49.790;9.620;2023-04-03T15:59:11;12.00;29.30
4103;DHT22;2065;49.790;9.620;2023-04-03T16:01:38;12.10;29.00
4103;DHT22;2065;49.790;9.620;2023-04-03T16:04:07;12.30;29.10
4103;DHT22;2065;49.790;9.620;2023-04-03T16:06:35;12.40;28.30
4103;DHT22;2065;49.790;9.620;2023-04-03T16:09:02;12.60;29.00
4103;DHT22;2065;49.790;9.620;2023-04-03T16:11:29;12.60;29.10
4103;DHT22;2065;49.790;9.620;2023-04-03T16:13:57;12.30;29.30
4103;DHT22;2065;49.790;9.620;2023-04-03T16:16:25;12.10;29.40
4103;DHT22;2065;49.790;9.620;2023-04-03T16:18:53;11.90;29.00
4103;DHT22;2065;49.790;9.620;2023-04-03T16:21:21;11.80;29.60
4103;DHT22;2065;49.790;9.620;2023-04-03T16:23:49;12.00;30.10
4103;DHT22;2065;49.790;9.620;2023-04-03T16:26:16;12.00;30.50
4103;DHT22;2065;49.790;9.620;2023-04-03T16:28:44;12.20;30.00
4103;DHT22;2065;49.790;9.620;2023-04-03T16:31:11;11.80;28.50
4103;DHT22;2065;49.790;9.620;2023-04-03T16:33:39;11.80;29.20
4103;DHT22;2065;49.790;9.620;2023-04-03T16:36:06;11.50;30.00
4103;DHT22;2065;49.790;9.620;2023-04-03T16:38:34;11.50;29.90